Time;durP1;ratioP1;P1;durP2;ratioP2;P2;SDS_P1;SDS_P2;PMS_P1;PMS_P2;Temp;Humidity;BMP_temperature;BMP_pressure;BME280_temperature;BME280_humidity;BME280_pressure;Samples;Min_cycle;Max_cycle;Signal;HPM_P1;HPM_P2
2021/10/04 00:01:30;;;;;;;4.78;2.88;;;17.60;54.20;;;;;;5013418;28;20197;-45
2021/10/04 00:04:01;;;;;;;5.32;2.97;;;17.60;54.20;;;;;;5012926;28;20204;-44
2021/10/04 00:06:31;;;;;;;4.10;2.80;;;17.60;54.10;;;;;;5008700;28;20280;-45
2021/10/04 00:09:04;;;;;;;4.95;2.90;;;17.60;54.20;;;;;;5011350;28;20225;-45
2021/10/04 00:11:34;;;;;;;5.38;3.20;;;17.60;54.30;;;;;;5007067;28;20233;-44
2021/10/04 00:14:05;;;;;;;3.65;2.83;;;17.60;54.30;;;;;;5012613;28;20291;-43
2021/10/04 00:16:35;;;;;;;5.43;3.42;;;17.60;54.30;;;;;;5011904;28;20261;-45
2021/10/04 00:19:06;;;;;;;4.75;3.03;;;17.60;54.30;;;;;;5011759;28;20648;-45
2021/10/04 00:21:36;;;;;;;3.88;3.10;;;17.60;54.30;;;;;;5013649;28;20228;-46
2021/10/04 00:24:08;;;;;;;5.93;3.47;;;17.60;54.30;;;;;;5011573;28;20706;-42
2021/10/04 00:26:39;;;;;;;4.70;2.85;;;17.60;54.40;;;;;;5012435;28;20335;-47
2021/10/04 00:29:09;;;;;;;7.25;3.55;;;17.70;54.40;;;;;;5012790;28;20300;-50
2021/10/04 00:31:40;;;;;;;4.82;3.28;;;17.70;54.40;;;;;;5010836;28;20228;-47
2021/10/04 00:34:10;;;;;;;3.53;2.67;;;17.70;54.40;;;;;;5009977;28;20239;-44
2021/10/04 00:36:41;;;;;;;3.83;3.00;;;17.70;54.50;;;;;;4996252;28;20320;-45
2021/10/04 00:39:13;;;;;;;5.53;3.28;;;17.70;54.40;;;;;;4992750;28;20260;-47
2021/10/04 00:41:43;;;;;;;4.10;3.05;;;17.70;54.40;;;;;;4992930;28;20221;-40
2021/10/04 00:44:14;;;;;;;4.22;2.85;;;17.70;54.30;;;;;;4993130;28;20244;-47
2021/10/04 00:46:44;;;;;;;4.75;3.10;;;17.70;54.30;;;;;;5007704;28;20275;-42
2021/10/04 00:49:15;;;;;;;4.20;2.83;;;17.70;54.30;;;;;;5012684;28;20240;-41
2021/10/04 00:51:45;;;;;;;4.05;3.53;;;17.70;54.30;;;;;;5011505;28;20189;-41
2021/10/04 00:54:17;;;;;;;4.65;3.15;;;17.70;54.30;;;;;;5012622;28;20235;-46
2021/10/04 00:56:48;;;;;;;4.28;2.88;;;17.70;54.30;;;;;;5010652;28;20312;-45
2021/10/04 00:59:20;;;;;;;5.50;3.50;;;17.70;54.30;;;;;;5012510;28;20686;-40
2021/10/04 01:01:50;;;;;;;3.95;2.70;;;17.80;54.40;;;;;;5012127;28;20203;-45
2021/10/04 01:04:25;;;;;;;2.75;2.50;;;17.80;54.30;;;;;;5012180;28;20232;-44
2021/10/04 01:06:56;;;;;;;4.78;3.35;;;17.70;54.20;;;;;;4995030;28;20208;-44
2021/10/04 01:09:28;;;;;;;4.00;2.65;;;17.70;54.30;;;;;;5011107;28;20248;-48
2021/10/04 01:11:59;;;;;;;4.65;3.05;;;17.80;54.40;;;;;;5011425;28;20228;-48
2021/10/04 01:14:29;;;;;;;4.45;2.85;;;17.80;54.30;;;;;;5011846;28;20205;-46
2021/10/04 01:17:00;;;;;;;3.67;2.92;;;17.80;54.30;;;;;;5003014;28;20320;-43
2021/10/04 01:19:30;;;;;;;4.78;3.28;;;17.80;54.30;;;;;;5011138;28;20255;-51
2021/10/04 01:22:03;;;;;;;4.90;2.80;;;17.80;54.30;;;;;;5011750;28;20233;-50
2021/10/04 01:24:33;;;;;;;5.05;3.22;;;17.80;54.20;;;;;;5011137;28;20243;-52
2021/10/04 01:27:04;;;;;;;3.70;2.90;;;17.80;54.20;;;;;;5011791;28;20232;-53
2021/10/04 01:29:34;;;;;;;5.03;3.22;;;17.90;54.30;;;;;;5011474;28;20239;-53
2021/10/04 01:32:04;;;;;;;4.75;3.13;;;17.80;54.20;;;;;;5006961;28;20236;-51
2021/10/04 01:34:35;;;;;;;3.88;2.83;;;17.80;54.20;;;;;;5011680;28;20221;-48
2021/10/04 01:37:07;;;;;;;5.40;3.25;;;17.80;54.30;;;;;;4990685;28;20316;-44
2021/10/04 01:39:38;;;;;;;5.65;3.13;;;17.80;54.20;;;;;;4991985;28;20629;-50
2021/10/04 01:42:08;;;;;;;4.82;3.15;;;17.80;54.90;;;;;;5005612;28;20240;-49
2021/10/04 01:44:39;;;;;;;4.53;2.83;;;17.80;54.30;;;;;;4997085;28;20244;-52
2021/10/04 01:47:09;;;;;;;3.40;3.08;;;17.80;54.20;;;;;;5004415;28;20264;-52
2021/10/04 01:49:40;;;;;;;4.35;2.60;;;17.90;54.30;;;;;;5011712;28;20703;-52
2021/10/04 01:52:13;;;;;;;7.82;2.38;;;17.80;55.00;;;;;;5011923;28;20196;-46
2021/10/04 01:54:43;;;;;;;5.43;2.22;;;17.80;56.70;;;;;;5012184;28;20677;-52
2021/10/04 01:57:14;;;;;;;5.57;2.42;;;17.80;56.70;;;;;;5011982;28;20588;-51
2021/10/04 01:59:44;;;;;;;4.93;2.95;;;17.80;56.70;;;;;;5005709;28;20287;-55
2021/10/04 02:02:14;;;;;;;5.53;2.58;;;17.80;56.70;;;;;;5011294;28;20695;-49
2021/10/04 02:04:45;;;;;;;5.03;2.95;;;17.80;56.90;;;;;;5011081;28;20232;-55
2021/10/04 02:07:17;;;;;;;4.78;3.03;;;17.90;56.90;;;;;;4992027;28;20700;-52
2021/10/04 02:09:48;;;;;;;5.22;2.70;;;17.90;57.00;;;;;;5007281;28;20668;-54
2021/10/04 02:12:18;;;;;;;5.78;2.83;;;17.90;57.00;;;;;;5011218;28;20197;-49
2021/10/04 02:14:49;;;;;;;5.28;2.45;;;17.90;56.90;;;;;;5010377;28;20672;-52
2021/10/04 02:17:19;;;;;;;4.97;2.60;;;17.90;56.80;;;;;;5010309;28;20764;-47
2021/10/04 02:19:50;;;;;;;5.57;2.70;;;17.90;56.70;;;;;;5010435;28;20752;-48
2021/10/04 02:22:22;;;;;;;3.20;2.45;;;17.90;56.70;;;;;;5010532;28;20422;-50
2021/10/04 02:24:53;;;;;;;4.10;2.70;;;17.90;56.50;;;;;;5008980;28;20208;-51
2021/10/04 02:27:23;;;;;;;3.55;2.90;;;17.90;56.40;;;;;;5011244;28;20229;-49
2021/10/04 02:29:53;;;;;;;6.30;2.70;;;17.90;56.40;;;;;;5010728;28;20266;-51
2021/10/04 02:32:24;;;;;;;7.30;2.60;;;18.00;56.50;;;;;;5010090;28;20224;-46
2021/10/04 02:34:54;;;;;;;5.68;3.13;;;18.00;56.40;;;;;;5011131;28;20255;-50
2021/10/04 02:37:27;;;;;;;5.28;2.47;;;18.00;56.50;;;;;;5010207;28;20255;-48
2021/10/04 02:39:57;;;;;;;5.05;2.42;;;18.00;56.40;;;;;;5010041;28;20252;-50
2021/10/04 02:42:27;;;;;;;4.75;2.28;;;18.00;56.50;;;;;;5011192;28;20236;-54
2021/10/04 02:44:58;;;;;;;4.95;2.92;;;18.00;56.30;;;;;;5010872;28;20251;-54
2021/10/04 02:47:28;;;;;;;3.40;2.70;;;18.00;56.20;;;;;;5011145;28;20228;-46
2021/10/04 02:49:59;;;;;;;4.70;2.42;;;18.00;56.20;;;;;;5010222;28;20312;-49
2021/10/04 02:52:31;;;;;;;4.43;2.50;;;18.00;56.10;;;;;;5010398;28;20284;-45
2021/10/04 02:55:01;;;;;;;3.35;2.25;;;18.00;56.10;;;;;;5011626;28;20285;-51
2021/10/04 02:57:32;;;;;;;4.15;2.05;;;18.00;56.00;;;;;;5011314;28;20311;-50
2021/10/04 03:00:02;;;;;;;3.90;2.65;;;18.00;56.00;;;;;;5010938;28;20252;-51
2021/10/04 03:02:33;;;;;;;4.82;2.70;;;18.00;55.90;;;;;;5010919;28;20282;-48
2021/10/04 03:05:03;;;;;;;4.85;2.53;;;18.00;55.90;;;;;;5011101;28;20339;-50
2021/10/04 03:07:35;;;;;;;3.78;2.28;;;18.00;56.00;;;;;;5011281;28;20236;-47
2021/10/04 03:10:06;;;;;;;4.57;2.35;;;18.00;55.90;;;;;;5007619;28;20322;-48
2021/10/04 03:12:37;;;;;;;3.55;2.55;;;18.00;55.90;;;;;;5006760;28;20224;-46
2021/10/04 03:15:07;;;;;;;3.30;2.42;;;18.00;55.90;;;;;;5009847;28;20236;-50
2021/10/04 03:17:38;;;;;;;4.07;2.20;;;18.10;56.00;;;;;;5007484;28;20334;-49
2021/10/04 03:20:09;;;;;;;2.72;2.22;;;18.10;55.90;;;;;;4991161;28;20217;-47
2021/10/04 03:22:42;;;;;;;3.60;2.40;;;18.10;55.90;;;;;;4989516;28;20615;-48
2021/10/04 03:25:12;;;;;;;4.20;2.53;;;18.00;55.90;;;;;;5009936;28;20243;-49
2021/10/04 03:27:43;;;;;;;3.15;2.63;;;18.10;56.00;;;;;;5009076;28;20220;-44
2021/10/04 03:30:14;;;;;;;3.42;2.40;;;18.10;55.90;;;;;;5005290;28;20620;-52
2021/10/04 03:32:46;;;;;;;2.67;2.08;;;18.10;55.90;;;;;;5009148;28;20274;-51
2021/10/04 03:35:16;;;;;;;4.35;2.42;;;18.10;55.90;;;;;;5006281;28;20303;-46
2021/10/04 03:37:49;;;;;;;3.38;2.45;;;18.10;55.90;;;;;;5008937;28;20324;-46
2021/10/04 03:40:19;;;;;;;5.13;2.30;;;18.10;55.90;;;;;;5008711;28;20263;-42
2021/10/04 03:42:50;;;;;;;2.75;2.20;;;18.10;55.80;;;;;;5009942;28;20235;-46
2021/10/04 03:45:20;;;;;;;4.10;2.65;;;18.10;55.80;;;;;;5007163;28;20296;-49
2021/10/04 03:47:51;;;;;;;4.13;2.60;;;18.10;55.80;;;;;;5003306;28;20288;-46
2021/10/04 03:50:21;;;;;;;4.32;2.38;;;18.10;55.90;;;;;;5006307;28;20308;-52
2021/10/04 03:52:53;;;;;;;4.55;2.72;;;18.10;55.90;;;;;;5009371;28;20735;-47
2021/10/04 03:55:24;;;;;;;4.10;2.60;;;18.10;55.80;;;;;;5012927;28;20623;-47
2021/10/04 03:57:54;;;;;;;3.58;2.75;;;18.20;55.80;;;;;;5009888;28;20771;-51
2021/10/04 04:00:25;;;;;;;2.88;2.50;;;18.10;55.80;;;;;;4994030;28;20728;-46
2021/10/04 04:02:56;;;;;;;3.22;2.58;;;18.20;55.80;;;;;;4993049;28;20240;-43
2021/10/04 04:05:26;;;;;;;2.85;2.40;;;18.10;55.90;;;;;;5009345;28;20287;-47
2021/10/04 04:07:58;;;;;;;3.67;2.38;;;18.20;56.00;;;;;;5009874;28;20308;-47
2021/10/04 04:10:29;;;;;;;2.78;2.50;;;18.20;56.00;;;;;;5012346;28;20252;-53
2021/10/04 04:12:59;;;;;;;2.80;2.25;;;18.20;56.00;;;;;;5012486;28;20288;-53
2021/10/04 04:15:29;;;;;;;3.42;2.03;;;18.20;55.90;;;;;;5010511;28;20254;-50
2021/10/04 04:18:00;;;;;;;3.92;2.30;;;18.20;55.80;;;;;;5013393;28;20312;-46
2021/10/04 04:20:30;;;;;;;2.85;2.30;;;18.20;55.80;;;;;;5010357;28;20629;-48
2021/10/04 04:23:03;;;;;;;3.65;2.17;;;18.20;55.80;;;;;;5013172;28;20664;-51
2021/10/04 04:25:33;;;;;;;4.53;2.67;;;18.20;55.80;;;;;;5010049;28;20251;-48
2021/10/04 04:28:04;;;;;;;3.17;2.45;;;18.20;55.80;;;;;;5013114;28;20220;-45
2021/10/04 04:30:34;;;;;;;3.25;2.20;;;18.20;55.80;;;;;;5010377;28;20312;-49
2021/10/04 04:33:05;;;;;;;3.58;2.35;;;18.20;55.70;;;;;;5013355;28;20566;-44
2021/10/04 04:35:35;;;;;;;2.42;2.22;;;18.20;55.70;;;;;;5012429;28;20243;-48
2021/10/04 04:38:08;;;;;;;3.40;2.33;;;18.20;55.80;;;;;;5012218;28;20220;-48
2021/10/04 04:40:38;;;;;;;3.35;2.40;;;18.20;55.80;;;;;;5011953;28;20263;-50
2021/10/04 04:43:09;;;;;;;4.05;2.88;;;18.20;55.80;;;;;;5011052;28;20271;-45
2021/10/04 04:45:39;;;;;;;4.50;3.03;;;18.20;55.80;;;;;;5013335;28;20289;-48
2021/10/04 04:48:10;;;;;;;4.85;2.95;;;18.20;55.80;;;;;;4993861;28;20293;-50
2021/10/04 04:50:40;;;;;;;4.63;2.90;;;18.20;55.80;;;;;;4993379;28;20304;-47
2021/10/04 04:53:13;;;;;;;3.15;2.85;;;18.20;55.90;;;;;;4993974;28;20670;-47
2021/10/04 04:55:43;;;;;;;3.70;2.67;;;18.20;55.90;;;;;;4997270;28;20268;-53
2021/10/04 04:58:13;;;;;;;3.58;2.90;;;18.20;56.00;;;;;;4993606;28;20229;-46
2021/10/04 05:00:44;;;;;;;3.92;3.10;;;18.20;56.00;;;;;;4993259;28;20253;-49
2021/10/04 05:03:14;;;;;;;3.10;2.80;;;18.20;56.00;;;;;;4992285;28;20259;-45
2021/10/04 05:05:45;;;;;;;4.60;3.25;;;18.20;56.00;;;;;;4993076;28;20239;-44
2021/10/04 05:08:17;;;;;;;3.97;3.20;;;18.20;55.90;;;;;;4993200;28;20284;-46
2021/10/04 05:10:47;;;;;;;4.97;3.47;;;18.20;56.10;;;;;;4993475;28;20272;-49
2021/10/04 05:13:18;;;;;;;3.95;3.03;;;18.20;56.20;;;;;;4993150;28;20297;-50
2021/10/04 05:15:48;;;;;;;3.55;2.85;;;18.30;56.20;;;;;;5004771;28;20295;-47
2021/10/04 05:18:19;;;;;;;4.47;3.50;;;18.30;56.10;;;;;;5012179;28;20229;-49
2021/10/04 05:20:49;;;;;;;5.63;4.18;;;18.30;56.10;;;;;;4996359;28;20269;-45
2021/10/04 05:23:21;;;;;;;5.93;4.15;;;18.30;56.30;;;;;;5004001;28;20295;-45
2021/10/04 05:25:52;;;;;;;4.63;3.63;;;18.30;56.30;;;;;;5011096;28;20243;-47
2021/10/04 05:28:22;;;;;;;4.65;3.60;;;18.30;56.30;;;;;;5009687;28;20538;-49
2021/10/04 05:30:53;;;;;;;4.75;3.90;;;18.30;56.30;;;;;;5011712;28;20561;-48
2021/10/04 05:33:23;;;;;;;4.97;3.97;;;18.30;56.30;;;;;;5008502;28;20251;-47
2021/10/04 05:35:53;;;;;;;5.15;3.90;;;18.20;56.10;;;;;;5010486;28;20695;-52
2021/10/04 05:38:26;;;;;;;5.47;3.80;;;18.20;56.10;;;;;;5009705;28;20758;-46
2021/10/04 05:40:56;;;;;;;4.88;3.58;;;18.20;56.10;;;;;;5010062;28;20987;-55
2021/10/04 05:43:27;;;;;;;5.80;4.10;;;18.20;56.10;;;;;;5010100;28;20287;-53
2021/10/04 05:45:57;;;;;;;5.85;4.22;;;18.20;56.10;;;;;;5009656;28;20240;-52
2021/10/04 05:48:27;;;;;;;4.97;3.92;;;18.30;56.10;;;;;;5011801;28;20244;-55
2021/10/04 05:50:58;;;;;;;4.25;3.70;;;18.30;56.70;;;;;;5009981;28;20260;-44
2021/10/04 05:53:30;;;;;;;4.45;3.90;;;18.30;56.10;;;;;;4992394;28;20289;-55
2021/10/04 05:56:01;;;;;;;4.72;4.05;;;18.30;56.10;;;;;;4993556;28;20240;-48
2021/10/04 05:58:31;;;;;;;4.63;3.42;;;18.30;56.20;;;;;;4990692;28;20312;-52
2021/10/04 06:01:01;;;;;;;4.63;3.53;;;18.30;56.10;;;;;;4991404;28;20317;-47
2021/10/04 06:03:32;;;;;;;5.93;3.95;;;18.30;56.20;;;;;;5010898;28;20255;-51
2021/10/04 06:06:02;;;;;;;5.57;3.75;;;18.30;56.40;;;;;;5010546;28;20232;-47
2021/10/04 06:08:35;;;;;;;5.10;3.30;;;18.30;56.60;;;;;;5009492;28;20299;-49
2021/10/04 06:11:05;;;;;;;4.97;3.45;;;18.30;57.20;;;;;;4991188;28;20265;-51
2021/10/04 06:13:35;;;;;;;5.30;4.30;;;18.30;57.10;;;;;;4993235;28;20201;-53
2021/10/04 06:16:06;;;;;;;9.25;6.47;;;18.30;56.60;;;;;;5009694;28;20251;-49
2021/10/04 06:18:37;;;;;;;7.70;6.30;;;18.30;56.70;;;;;;5008801;28;20334;-51
2021/10/04 06:21:07;;;;;;;7.97;6.55;;;18.30;56.70;;;;;;5010959;28;20271;-55
2021/10/04 06:23:39;;;;;;;5.35;4.50;;;18.30;56.70;;;;;;5010341;28;20248;-51
2021/10/04 06:26:10;;;;;;;10.57;6.32;;;18.20;56.50;;;;;;5007706;28;20299;-47
2021/10/04 06:28:40;;;;;;;7.43;6.57;;;18.30;56.90;;;;;;5010739;28;20291;-55
2021/10/04 06:31:10;;;;;;;7.97;6.72;;;18.30;57.10;;;;;;5010603;28;20248;-55
2021/10/04 06:33:41;;;;;;;7.25;6.35;;;18.30;57.00;;;;;;5011068;28;20296;-49
2021/10/04 06:36:11;;;;;;;6.90;6.15;;;18.30;57.00;;;;;;5010948;28;20282;-56
2021/10/04 06:38:44;;;;;;;7.28;6.13;;;18.30;57.00;;;;;;5005594;28;20329;-55
2021/10/04 06:41:14;;;;;;;6.82;5.93;;;18.30;57.00;;;;;;4994590;28;20251;-56
2021/10/04 06:43:44;;;;;;;8.10;6.10;;;18.30;56.90;;;;;;5005325;28;20288;-55
2021/10/04 06:46:15;;;;;;;6.80;5.93;;;18.30;56.90;;;;;;5002369;28;20259;-55
2021/10/04 06:48:45;;;;;;;7.65;6.13;;;18.30;57.00;;;;;;5010050;28;20720;-47
2021/10/04 06:51:16;;;;;;;7.00;5.85;;;18.40;57.10;;;;;;5010188;28;20734;-52
2021/10/04 06:53:48;;;;;;;7.00;6.03;;;18.30;56.90;;;;;;5009367;28;20247;-50
2021/10/04 06:56:18;;;;;;;6.97;5.90;;;18.30;56.90;;;;;;5009442;28;20252;-53
2021/10/04 06:58:49;;;;;;;8.25;6.32;;;18.30;56.80;;;;;;5009538;28;20252;-49
2021/10/04 07:01:19;;;;;;;7.53;6.35;;;18.30;56.80;;;;;;5009988;28;20264;-53
2021/10/04 07:03:50;;;;;;;6.60;5.88;;;18.30;56.70;;;;;;5011083;28;20862;-50
2021/10/04 07:06:20;;;;;;;7.30;6.15;;;18.30;56.50;;;;;;5007404;28;20553;-57
2021/10/04 07:08:52;;;;;;;7.07;6.03;;;18.30;56.50;;;;;;5010109;28;20692;-54
2021/10/04 07:11:24;;;;;;;12.80;11.38;;;18.30;56.60;;;;;;5009110;28;20751;-55
2021/10/04 07:13:54;;;;;;;12.07;10.77;;;18.30;56.70;;;;;;5010591;28;20262;-48
2021/10/04 07:16:25;;;;;;;11.70;9.93;;;18.30;56.70;;;;;;5007545;28;20707;-52
2021/10/04 07:18:56;;;;;;;10.95;8.73;;;18.20;56.60;;;;;;5007537;28;20543;-54
2021/10/04 07:21:26;;;;;;;12.02;9.32;;;18.20;56.70;;;;;;5009072;28;20240;-55
2021/10/04 07:23:59;;;;;;;11.60;8.77;;;18.30;56.80;;;;;;5009378;28;20236;-55
2021/10/04 07:26:30;;;;;;;10.70;9.27;;;18.20;56.90;;;;;;5012843;28;20698;-47
2021/10/04 07:29:04;;;;;;;10.70;8.57;;;18.20;56.90;;;;;;5009144;28;20212;-51
2021/10/04 07:31:34;;;;;;;10.23;9.18;;;18.20;56.80;;;;;;5013245;28;20696;-55
2021/10/04 07:34:06;;;;;;;10.50;9.40;;;18.20;56.70;;;;;;5012521;28;20669;-50
2021/10/04 07:36:36;;;;;;;9.45;8.43;;;18.20;56.60;;;;;;5012760;28;20599;-56
2021/10/04 07:39:09;;;;;;;9.55;8.57;;;18.20;56.60;;;;;;5012302;28;20657;-48
2021/10/04 07:41:39;;;;;;;9.48;8.55;;;18.20;56.60;;;;;;5012605;28;20240;-55
2021/10/04 07:44:10;;;;;;;10.27;9.15;;;18.20;56.50;;;;;;5010966;28;20271;-55
2021/10/04 07:46:43;;;;;;;10.15;9.02;;;18.20;56.50;;;;;;5013830;28;20460;-53
2021/10/04 07:49:14;;;;;;;10.25;8.95;;;18.20;56.50;;;;;;5012863;28;20244;-54
2021/10/04 07:51:44;;;;;;;9.30;8.30;;;18.20;56.40;;;;;;5013388;28;20236;-53
2021/10/04 07:54:16;;;;;;;9.73;8.73;;;18.20;56.40;;;;;;5013400;28;20316;-46
2021/10/04 07:56:47;;;;;;;9.98;8.98;;;18.20;56.50;;;;;;5013306;28;20748;-52
2021/10/04 07:59:17;;;;;;;9.50;8.50;;;18.10;56.40;;;;;;5012828;28;20653;-52
2021/10/04 08:01:48;;;;;;;8.75;7.88;;;18.20;56.40;;;;;;5009893;28;20684;-52
2021/10/04 08:04:18;;;;;;;9.15;8.23;;;18.20;56.40;;;;;;5013018;28;20303;-50
2021/10/04 08:06:49;;;;;;;9.00;8.10;;;18.10;56.40;;;;;;5011754;28;20236;-48
2021/10/04 08:09:21;;;;;;;8.70;7.80;;;18.10;56.50;;;;;;5007943;28;20247;-52
2021/10/04 08:11:51;;;;;;;9.50;8.50;;;18.10;56.50;;;;;;5011194;28;20302;-47
2021/10/04 08:14:22;;;;;;;8.93;8.02;;;18.10;56.50;;;;;;5007665;28;20254;-54
2021/10/04 08:16:53;;;;;;;8.55;7.65;;;18.10;56.40;;;;;;5011744;28;20948;-54
2021/10/04 08:19:23;;;;;;;8.45;7.50;;;18.10;56.40;;;;;;5010314;28;21212;-53
2021/10/04 08:21:53;;;;;;;8.52;7.40;;;18.10;56.30;;;;;;5013038;28;20626;-51
2021/10/04 08:24:26;;;;;;;8.25;7.07;;;18.10;56.20;;;;;;5006616;28;20689;-52
2021/10/04 08:26:56;;;;;;;8.68;7.78;;;18.10;56.30;;;;;;5010181;28;20240;-50
2021/10/04 08:29:27;;;;;;;7.70;6.90;;;18.10;56.10;;;;;;5003303;28;20272;-50
2021/10/04 08:31:57;;;;;;;8.45;7.65;;;18.10;56.10;;;;;;4994100;28;20459;-47
2021/10/04 08:34:27;;;;;;;8.63;7.80;;;18.10;56.10;;;;;;5003758;28;20645;-47
2021/10/04 08:36:58;;;;;;;8.88;7.97;;;18.10;56.00;;;;;;5011837;28;20623;-52
2021/10/04 08:39:30;;;;;;;8.38;7.57;;;18.10;56.10;;;;;;5012228;28;20639;-50
2021/10/04 08:42:01;;;;;;;9.35;7.93;;;18.10;56.10;;;;;;5009630;28;20201;-50
2021/10/04 08:44:32;;;;;;;8.30;7.43;;;18.10;56.10;;;;;;5010075;28;20200;-52
2021/10/04 08:47:02;;;;;;;7.60;6.80;;;18.00;56.00;;;;;;5009513;28;20252;-53
2021/10/04 08:49:33;;;;;;;8.05;7.25;;;18.10;56.10;;;;;;5011286;28;20306;-43
2021/10/04 08:52:04;;;;;;;8.00;6.95;;;18.00;56.10;;;;;;5010771;28;20208;-47
2021/10/04 08:54:36;;;;;;;8.15;7.13;;;18.00;56.00;;;;;;5012636;28;20253;-49
2021/10/04 08:57:07;;;;;;;8.23;7.43;;;18.00;56.00;;;;;;5011319;28;20643;-56
2021/10/04 08:59:37;;;;;;;8.68;7.20;;;18.00;56.00;;;;;;5010604;28;20259;-56
2021/10/04 09:02:27;;;;;;;9.30;8.20;;;18.00;55.90;;;;;;5025800;28;20287;-51
2021/10/04 09:05:12;;;;;;;8.23;7.10;;;18.00;55.90;;;;;;5038005;28;20198;-48
2021/10/04 09:07:43;;;;;;;8.90;7.03;;;18.00;55.80;;;;;;5064119;28;20243;-53
2021/10/04 09:10:16;;;;;;;8.07;7.20;;;18.00;55.80;;;;;;5046804;28;20658;-56
2021/10/04 09:12:52;;;;;;;8.57;7.45;;;18.00;55.80;;;;;;5051707;28;20557;-48
2021/10/04 09:15:31;;;;;;;8.30;7.30;;;18.00;55.80;;;;;;5051219;28;20286;-47
2021/10/04 09:18:02;;;;;;;7.97;6.50;;;18.00;55.80;;;;;;5049424;28;20353;-50
2021/10/04 09:20:53;;;;;;;7.68;6.75;;;18.00;55.70;;;;;;5049431;28;20258;-56
2021/10/04 09:23:44;;;;;;;8.88;7.40;;;18.00;55.70;;;;;;5046889;28;20245;-53
2021/10/04 09:26:35;;;;;;;9.25;7.32;;;18.00;55.70;;;;;;5049215;28;20353;-49
2021/10/04 09:29:10;;;;;;;8.38;6.85;;;18.00;55.80;;;;;;5042840;28;20671;-51
2021/10/04 09:31:40;;;;;;;9.25;8.02;;;17.90;55.70;;;;;;5047118;28;20282;-51
2021/10/04 09:34:12;;;;;;;8.02;6.97;;;17.90;55.80;;;;;;5051961;28;20241;-52
2021/10/04 09:36:43;;;;;;;7.32;6.57;;;18.00;55.80;;;;;;5050349;28;20607;-54
2021/10/04 09:39:25;;;;;;;8.20;6.88;;;17.90;55.70;;;;;;5043502;28;20307;-49
2021/10/04 09:42:12;;;;;;;7.15;6.22;;;17.90;55.70;;;;;;5031477;28;20288;-51
2021/10/04 09:44:47;;;;;;;7.45;6.57;;;17.90;55.70;;;;;;5048894;28;20199;-47
2021/10/04 09:47:18;;;;;;;7.38;5.97;;;17.90;55.70;;;;;;5052267;28;20234;-48
2021/10/04 09:49:59;;;;;;;6.90;6.20;;;17.90;55.70;;;;;;5051781;28;20250;-50
2021/10/04 09:52:40;;;;;;;6.90;6.18;;;17.90;55.70;;;;;;5048782;28;20228;-53
2021/10/04 09:55:21;;;;;;;8.00;6.72;;;17.90;55.70;;;;;;5031790;28;20239;-45
2021/10/04 09:58:03;;;;;;;7.07;6.32;;;17.90;55.70;;;;;;5031504;28;20258;-50
2021/10/04 10:00:35;;;;;;;6.38;5.75;;;17.90;55.60;;;;;;5031566;28;20664;-48
2021/10/04 10:03:06;;;;;;;7.88;6.40;;;17.90;55.60;;;;;;5031909;28;20566;-52
2021/10/04 10:05:37;;;;;;;7.13;6.43;;;17.90;55.60;;;;;;5031728;28;20228;-53
2021/10/04 10:08:08;;;;;;;7.85;6.50;;;17.90;55.70;;;;;;5013321;28;20247;-51
2021/10/04 10:10:39;;;;;;;8.05;5.78;;;17.80;55.70;;;;;;4991527;28;20705;-53
2021/10/04 10:13:12;;;;;;;7.30;6.57;;;17.80;55.70;;;;;;4991343;28;20236;-51
2021/10/04 10:15:43;;;;;;;7.05;6.03;;;17.80;55.60;;;;;;4992129;28;20642;-47
2021/10/04 10:18:20;;;;;;;6.80;5.57;;;17.80;55.70;;;;;;5011495;28;20209;-46
2021/10/04 10:20:56;;;;;;;7.57;6.10;;;17.80;56.20;;;;;;5011524;28;20303;-52
2021/10/04 10:23:47;;;;;;;6.35;5.68;;;17.80;55.60;;;;;;5012107;28;20303;-45
2021/10/04 10:26:32;;;;;;;6.40;5.45;;;17.80;55.60;;;;;;5007088;28;20632;-47
2021/10/04 10:29:29;;;;;;;7.00;6.03;;;17.80;55.60;;;;;;5010615;28;20279;-52
2021/10/04 10:32:10;;;;;;;6.55;5.50;;;17.80;55.60;;;;;;5011469;28;20296;-54
2021/10/04 10:34:56;;;;;;;6.43;5.55;;;17.80;55.60;;;;;;5010929;28;20294;-48
2021/10/04 10:37:27;;;;;;;5.90;5.30;;;17.80;55.50;;;;;;5011210;28;20300;-46
2021/10/04 10:39:58;;;;;;;5.72;4.97;;;17.80;55.50;;;;;;5009117;28;20229;-47
2021/10/04 10:42:31;;;;;;;6.60;5.43;;;17.80;55.50;;;;;;5006383;28;20220;-49
2021/10/04 10:45:18;;;;;;;7.63;5.72;;;17.80;55.50;;;;;;5010875;28;20224;-48
2021/10/04 10:47:58;;;;;;;7.72;6.03;;;17.80;55.50;;;;;;5008540;28;20633;-49
2021/10/04 10:50:30;;;;;;;6.75;5.45;;;17.80;55.50;;;;;;5011132;28;20279;-52
2021/10/04 10:53:10;;;;;;;5.80;5.20;;;17.80;55.50;;;;;;5011470;28;20657;-50
2021/10/04 10:55:41;;;;;;;6.38;5.10;;;17.80;55.60;;;;;;5008133;28;20287;-49
2021/10/04 10:58:13;;;;;;;6.82;5.20;;;17.80;55.60;;;;;;5007520;28;20213;-50
2021/10/04 11:00:49;;;;;;;5.57;5.00;;;17.80;55.60;;;;;;5012941;28;20239;-53
2021/10/04 11:03:20;;;;;;;6.25;5.50;;;17.80;55.60;;;;;;5013176;28;20239;-53
2021/10/04 11:06:00;;;;;;;5.97;5.38;;;17.80;55.50;;;;;;5013953;28;20704;-49
2021/10/04 11:08:58;;;;;;;7.07;5.85;;;17.80;55.50;;;;;;5014671;28;20672;-56
2021/10/04 11:11:36;;;;;;;6.53;5.65;;;17.80;55.60;;;;;;4993995;28;20771;-54
2021/10/04 11:14:16;;;;;;;6.18;5.20;;;17.70;55.50;;;;;;5001367;28;20331;-51
2021/10/04 11:17:03;;;;;;;5.82;5.22;;;17.80;55.50;;;;;;5014292;28;20239;-57
2021/10/04 11:19:37;;;;;;;5.22;4.72;;;17.70;55.40;;;;;;5015149;28;20270;-54
2021/10/04 11:22:21;;;;;;;5.35;4.85;;;17.80;55.40;;;;;;5012240;28;20195;-49
2021/10/04 11:24:59;;;;;;;6.35;5.50;;;17.70;55.50;;;;;;5013381;28;20205;-55
2021/10/04 11:27:30;;;;;;;6.05;5.45;;;17.70;55.40;;;;;;5011242;28;20304;-50
2021/10/04 11:30:07;;;;;;;5.32;4.82;;;17.70;55.30;;;;;;5014307;28;20248;-56
2021/10/04 11:32:40;;;;;;;6.15;4.72;;;17.70;55.40;;;;;;5012450;28;20208;-56
2021/10/04 11:35:18;;;;;;;5.90;5.20;;;17.70;55.40;;;;;;5011907;28;20201;-48
2021/10/04 11:37:48;;;;;;;5.70;4.72;;;17.70;56.00;;;;;;5010556;28;20200;-47
2021/10/04 11:40:19;;;;;;;5.53;5.00;;;17.70;55.40;;;;;;5014454;28;20688;-47
2021/10/04 11:42:49;;;;;;;5.70;5.10;;;17.70;55.40;;;;;;5013444;28;20695;-54
2021/10/04 11:45:20;;;;;;;4.97;4.47;;;17.70;55.40;;;;;;5009862;28;20203;-51
2021/10/04 11:47:52;;;;;;;6.28;4.72;;;17.70;55.50;;;;;;5012638;28;20283;-56
2021/10/04 11:50:22;;;;;;;5.47;4.75;;;17.70;55.50;;;;;;5009613;28;20311;-56
2021/10/04 11:52:53;;;;;;;5.55;5.05;;;17.70;55.50;;;;;;5013207;28;20200;-50
2021/10/04 11:55:23;;;;;;;5.57;4.85;;;17.70;55.40;;;;;;5009483;28;20201;-49
2021/10/04 11:57:54;;;;;;;5.82;4.90;;;17.70;55.40;;;;;;5014041;28;20244;-51
2021/10/04 12:00:24;;;;;;;6.07;4.90;;;17.70;55.40;;;;;;5010043;28;20267;-50
2021/10/04 12:02:57;;;;;;;5.40;4.90;;;17.70;55.30;;;;;;5011360;28;20228;-51
2021/10/04 12:05:28;;;;;;;5.72;4.82;;;17.70;55.40;;;;;;4993928;28;20291;-56
2021/10/04 12:08:01;;;;;;;5.15;4.38;;;17.70;55.30;;;;;;4993622;28;20205;-53
2021/10/04 12:10:44;;;;;;;5.68;4.85;;;17.60;55.30;;;;;;4993975;28;20808;-55
2021/10/04 12:13:15;;;;;;;4.65;4.25;;;17.60;55.30;;;;;;4993931;28;20637;-47
2021/10/04 12:15:45;;;;;;;5.13;4.28;;;17.60;55.30;;;;;;4994499;28;20237;-53
2021/10/04 12:18:18;;;;;;;5.90;4.60;;;17.60;55.30;;;;;;5013056;28;20224;-49
2021/10/04 12:20:49;;;;;;;4.75;4.30;;;17.60;55.40;;;;;;5013284;28;20793;-53
2021/10/04 12:23:20;;;;;;;4.75;4.15;;;17.60;55.40;;;;;;5011755;28;20255;-52
2021/10/04 12:25:51;;;;;;;4.78;4.30;;;17.60;55.40;;;;;;5012288;28;20237;-54
2021/10/04 12:28:21;;;;;;;4.85;4.45;;;17.60;55.40;;;;;;5011849;28;20228;-55
2021/10/04 12:30:53;;;;;;;7.53;5.10;;;17.60;55.40;;;;;;5013562;28;20267;-58
2021/10/04 12:33:44;;;;;;;5.20;4.32;;;17.60;55.50;;;;;;5007207;28;20237;-55
2021/10/04 12:36:15;;;;;;;5.10;4.43;;;17.60;55.50;;;;;;5010540;28;20239;-51
2021/10/04 12:38:55;;;;;;;5.30;4.30;;;17.60;55.50;;;;;;5013263;28;20282;-50
2021/10/04 12:41:39;;;;;;;4.72;4.25;;;17.60;55.50;;;;;;5013279;28;20270;-50
2021/10/04 12:44:14;;;;;;;4.68;4.13;;;17.60;55.40;;;;;;5013162;28;20193;-55
2021/10/04 12:46:58;;;;;;;5.13;4.40;;;17.60;55.40;;;;;;5013378;28;20383;-43
2021/10/04 12:49:31;;;;;;;4.57;4.15;;;17.60;55.30;;;;;;5013132;28;20639;-46
2021/10/04 12:52:01;;;;;;;4.22;3.80;;;17.60;55.40;;;;;;5012202;28;20189;-53
2021/10/04 12:54:32;;;;;;;4.95;4.22;;;17.60;55.30;;;;;;5011554;28;20224;-55
2021/10/04 12:57:02;;;;;;;4.63;3.72;;;17.60;55.40;;;;;;5009580;28;20612;-51
2021/10/04 12:59:33;;;;;;;5.00;4.15;;;17.60;55.40;;;;;;5011719;28;20659;-54
2021/10/04 13:02:04;;;;;;;4.53;3.97;;;17.60;56.00;;;;;;5009080;28;20243;-48
2021/10/04 13:04:37;;;;;;;4.35;3.70;;;17.60;55.40;;;;;;5011545;28;20723;-54
2021/10/04 13:07:07;;;;;;;4.15;3.75;;;17.60;55.40;;;;;;5009867;28;20228;-56
2021/10/04 13:09:38;;;;;;;4.72;3.97;;;17.60;55.40;;;;;;5012234;28;20219;-54
2021/10/04 13:12:09;;;;;;;3.83;3.38;;;17.60;55.40;;;;;;5012100;28;20704;-57